sensor_id;sensor_type;location;lat;lon;timestamp;pressure;altitude;pressure_sealevel;temperature
41593;BMP180;28026;48.562;14.440;2022-08-03T00:00:24;94082.00;;;26.60
41593;BMP180;28026;48.562;14.440;2022-08-03T00:02:55;94088.00;;;26.60
41593;BMP180;28026;48.562;14.440;2022-08-03T00:05:26;94094.00;;;26.60
41593;BMP180;28026;48.562;14.440;2022-08-03T00:07:58;94089.00;;;26.50
41593;BMP180;28026;48.562;14.440;2022-08-03T00:10:30;94092.00;;;26.40
41593;BMP180;28026;48.562;14.440;2022-08-03T00:13:01;94093.00;;;26.40
41593;BMP180;28026;48.562;14.440;2022-08-03T00:15:32;94097.00;;;26.40
41593;BMP180;28026;48.562;14.440;2022-08-03T00:18:03;94085.00;;;26.30
41593;BMP180;28026;48.562;14.440;2022-08-03T00:20:35;94091.00;;;26.30
41593;BMP180;28026;48.562;14.440;2022-08-03T00:23:06;94082.00;;;26.30
41593;BMP180;28026;48.562;14.440;2022-08-03T00:25:37;94096.00;;;26.30
41593;BMP180;28026;48.562;14.440;2022-08-03T00:28:08;94085.00;;;26.20
41593;BMP180;28026;48.562;14.440;2022-08-03T00:30:39;94091.00;;;26.20
41593;BMP180;28026;48.562;14.440;2022-08-03T00:33:10;94087.00;;;26.10
41593;BMP180;28026;48.562;14.440;2022-08-03T00:35:41;94085.00;;;26.10
41593;BMP180;28026;48.562;14.440;2022-08-03T00:38:13;94089.00;;;26.10
41593;BMP180;28026;48.562;14.440;2022-08-03T00:40:44;94087.00;;;26.00
41593;BMP180;28026;48.562;14.440;2022-08-03T00:43:15;94079.00;;;26.00
41593;BMP180;28026;48.562;14.440;2022-08-03T00:45:47;94082.00;;;25.90
41593;BMP180;28026;48.562;14.440;2022-08-03T00:48:18;94084.00;;;25.90
41593;BMP180;28026;48.562;14.440;2022-08-03T00:50:49;94086.00;;;25.90
41593;BMP180;28026;48.562;14.440;2022-08-03T00:53:20;94082.00;;;25.80
41593;BMP180;28026;48.562;14.440;2022-08-03T00:55:52;94080.00;;;25.80
41593;BMP180;28026;48.562;14.440;2022-08-03T00:58:23;94076.00;;;25.80
41593;BMP180;28026;48.562;14.440;2022-08-03T01:00:54;94075.00;;;25.80
41593;BMP180;28026;48.562;14.440;2022-08-03T01:03:25;94079.00;;;25.80
41593;BMP180;28026;48.562;14.440;2022-08-03T01:09:02;94086.00;;;25.70
41593;BMP180;28026;48.562;14.440;2022-08-03T01:11:48;94090.00;;;25.80
41593;BMP180;28026;48.562;14.440;2022-08-03T01:14:33;94083.00;;;25.70
41593;BMP180;28026;48.562;14.440;2022-08-03T01:17:18;94089.00;;;25.70
41593;BMP180;28026;48.562;14.440;2022-08-03T01:20:08;94081.00;;;25.70
41593;BMP180;28026;48.562;14.440;2022-08-03T01:27:02;94080.00;;;25.60
41593;BMP180;28026;48.562;14.440;2022-08-03T01:32:59;94074.00;;;25.50
41593;BMP180;28026;48.562;14.440;2022-08-03T01:35:59;94071.00;;;25.50
41593;BMP180;28026;48.562;14.440;2022-08-03T01:38:40;94064.00;;;25.50
41593;BMP180;28026;48.562;14.440;2022-08-03T01:41:33;94067.00;;;25.40
41593;BMP180;28026;48.562;14.440;2022-08-03T01:44:10;94063.00;;;25.40
41593;BMP180;28026;48.562;14.440;2022-08-03T01:46:43;94057.00;;;25.40
41593;BMP180;28026;48.562;14.440;2022-08-03T01:49:18;94059.00;;;25.40
41593;BMP180;28026;48.562;14.440;2022-08-03T01:51:51;94068.00;;;25.40
41593;BMP180;28026;48.562;14.440;2022-08-03T01:54:24;94064.00;;;25.40
41593;BMP180;28026;48.562;14.440;2022-08-03T01:56:58;94062.00;;;25.40
41593;BMP180;28026;48.562;14.440;2022-08-03T01:59:33;94072.00;;;25.30
41593;BMP180;28026;48.562;14.440;2022-08-03T02:02:07;94068.00;;;25.30
41593;BMP180;28026;48.562;14.440;2022-08-03T02:04:46;94065.00;;;25.30
41593;BMP180;28026;48.562;14.440;2022-08-03T02:07:19;94060.00;;;25.30
41593;BMP180;28026;48.562;14.440;2022-08-03T02:09:52;94063.00;;;25.30
41593;BMP180;28026;48.562;14.440;2022-08-03T02:12:27;94060.00;;;25.20
41593;BMP180;28026;48.562;14.440;2022-08-03T02:15:00;94047.00;;;25.10
41593;BMP180;28026;48.562;14.440;2022-08-03T02:17:33;94053.00;;;25.10
41593;BMP180;28026;48.562;14.440;2022-08-03T02:20:10;94040.00;;;25.00
41593;BMP180;28026;48.562;14.440;2022-08-03T02:22:42;94051.00;;;25.00
41593;BMP180;28026;48.562;14.440;2022-08-03T02:25:16;94043.00;;;25.00
41593;BMP180;28026;48.562;14.440;2022-08-03T02:27:55;94046.00;;;25.00
41593;BMP180;28026;48.562;14.440;2022-08-03T02:30:35;94057.00;;;25.00
41593;BMP180;28026;48.562;14.440;2022-08-03T02:33:19;94045.00;;;25.00
41593;BMP180;28026;48.562;14.440;2022-08-03T02:35:56;94047.00;;;24.90
41593;BMP180;28026;48.562;14.440;2022-08-03T02:38:34;94048.00;;;24.90
41593;BMP180;28026;48.562;14.440;2022-08-03T02:41:17;94041.00;;;24.90
41593;BMP180;28026;48.562;14.440;2022-08-03T02:44:11;94046.00;;;24.70
41593;BMP180;28026;48.562;14.440;2022-08-03T02:46:47;94048.00;;;24.70
41593;BMP180;28026;48.562;14.440;2022-08-03T02:49:24;94045.00;;;24.70
41593;BMP180;28026;48.562;14.440;2022-08-03T02:51:58;94048.00;;;24.70
41593;BMP180;28026;48.562;14.440;2022-08-03T02:54:32;94054.00;;;24.60
41593;BMP180;28026;48.562;14.440;2022-08-03T02:57:08;94049.00;;;24.60
41593;BMP180;28026;48.562;14.440;2022-08-03T02:59:43;94052.00;;;24.60
41593;BMP180;28026;48.562;14.440;2022-08-03T03:02:17;94053.00;;;24.60
41593;BMP180;28026;48.562;14.440;2022-08-03T03:04:51;94051.00;;;24.60
41593;BMP180;28026;48.562;14.440;2022-08-03T03:07:23;94047.00;;;24.60
41593;BMP180;28026;48.562;14.440;2022-08-03T03:09:55;94055.00;;;24.60
41593;BMP180;28026;48.562;14.440;2022-08-03T03:12:28;94050.00;;;24.60
41593;BMP180;28026;48.562;14.440;2022-08-03T03:15:00;94047.00;;;24.60
41593;BMP180;28026;48.562;14.440;2022-08-03T03:17:33;94049.00;;;24.60
41593;BMP180;28026;48.562;14.440;2022-08-03T03:20:07;94051.00;;;24.60
41593;BMP180;28026;48.562;14.440;2022-08-03T03:22:40;94059.00;;;24.60
41593;BMP180;28026;48.562;14.440;2022-08-03T03:25:11;94063.00;;;24.60
41593;BMP180;28026;48.562;14.440;2022-08-03T03:27:43;94053.00;;;24.50
41593;BMP180;28026;48.562;14.440;2022-08-03T03:30:14;94057.00;;;24.50
41593;BMP180;28026;48.562;14.440;2022-08-03T03:32:46;94053.00;;;24.50
41593;BMP180;28026;48.562;14.440;2022-08-03T03:35:17;94055.00;;;24.50
41593;BMP180;28026;48.562;14.440;2022-08-03T03:37:48;94041.00;;;24.50
41593;BMP180;28026;48.562;14.440;2022-08-03T03:40:20;94053.00;;;24.50
41593;BMP180;28026;48.562;14.440;2022-08-03T03:42:52;94053.00;;;24.50
41593;BMP180;28026;48.562;14.440;2022-08-03T03:45:23;94053.00;;;24.50
41593;BMP180;28026;48.562;14.440;2022-08-03T03:47:54;94044.00;;;24.50
41593;BMP180;28026;48.562;14.440;2022-08-03T03:50:27;94047.00;;;24.40
41593;BMP180;28026;48.562;14.440;2022-08-03T03:53:03;94048.00;;;24.40
41593;BMP180;28026;48.562;14.440;2022-08-03T03:55:34;94049.00;;;24.40
41593;BMP180;28026;48.562;14.440;2022-08-03T03:58:07;94051.00;;;24.40
41593;BMP180;28026;48.562;14.440;2022-08-03T04:00:38;94045.00;;;24.40
41593;BMP180;28026;48.562;14.440;2022-08-03T04:03:10;94053.00;;;24.40
41593;BMP180;28026;48.562;14.440;2022-08-03T04:05:42;94062.00;;;24.40
41593;BMP180;28026;48.562;14.440;2022-08-03T04:08:32;94053.00;;;24.40
41593;BMP180;28026;48.562;14.440;2022-08-03T04:11:28;94061.00;;;24.40
41593;BMP180;28026;48.562;14.440;2022-08-03T04:14:12;94053.00;;;24.40
41593;BMP180;28026;48.562;14.440;2022-08-03T04:17:06;94064.00;;;24.40
41593;BMP180;28026;48.562;14.440;2022-08-03T04:19:47;94064.00;;;24.50
41593;BMP180;28026;48.562;14.440;2022-08-03T04:22:28;94063.00;;;24.50
41593;BMP180;28026;48.562;14.440;2022-08-03T04:25:08;94066.00;;;24.50
41593;BMP180;28026;48.562;14.440;2022-08-03T04:27:49;94055.00;;;24.60
41593;BMP180;28026;48.562;14.440;2022-08-03T04:30:25;94065.00;;;24.60
41593;BMP180;28026;48.562;14.440;2022-08-03T04:33:00;94071.00;;;24.60
41593;BMP180;28026;48.562;14.440;2022-08-03T04:35:35;94066.00;;;24.70
41593;BMP180;28026;48.562;14.440;2022-08-03T04:38:07;94077.00;;;24.70
41593;BMP180;28026;48.562;14.440;2022-08-03T04:40:43;94067.00;;;24.80
41593;BMP180;28026;48.562;14.440;2022-08-03T04:43:20;94076.00;;;24.80
41593;BMP180;28026;48.562;14.440;2022-08-03T04:45:53;94070.00;;;24.90
41593;BMP180;28026;48.562;14.440;2022-08-03T04:48:26;94078.00;;;24.90
41593;BMP180;28026;48.562;14.440;2022-08-03T04:50:58;94073.00;;;25.00
41593;BMP180;28026;48.562;14.440;2022-08-03T04:53:30;94083.00;;;24.90
41593;BMP180;28026;48.562;14.440;2022-08-03T04:56:05;94081.00;;;24.80
41593;BMP180;28026;48.562;14.440;2022-08-03T04:58:36;94080.00;;;24.70
41593;BMP180;28026;48.562;14.440;2022-08-03T05:01:07;94077.00;;;24.80
41593;BMP180;28026;48.562;14.440;2022-08-03T05:03:38;94082.00;;;24.90
41593;BMP180;28026;48.562;14.440;2022-08-03T05:06:10;94087.00;;;25.00
41593;BMP180;28026;48.562;14.440;2022-08-03T05:08:41;94069.00;;;25.20
41593;BMP180;28026;48.562;14.440;2022-08-03T05:11:11;94078.00;;;25.40
41593;BMP180;28026;48.562;14.440;2022-08-03T05:13:44;94078.00;;;25.50
41593;BMP180;28026;48.562;14.440;2022-08-03T05:16:15;94084.00;;;25.70
41593;BMP180;28026;48.562;14.440;2022-08-03T05:18:46;94081.00;;;25.80
41593;BMP180;28026;48.562;14.440;2022-08-03T05:21:17;94076.00;;;26.00
41593;BMP180;28026;48.562;14.440;2022-08-03T05:23:48;94080.00;;;26.10
41593;BMP180;28026;48.562;14.440;2022-08-03T05:26:20;94078.00;;;26.20
41593;BMP180;28026;48.562;14.440;2022-08-03T05:28:52;94089.00;;;26.30
41593;BMP180;28026;48.562;14.440;2022-08-03T05:31:23;94088.00;;;26.40
41593;BMP180;28026;48.562;14.440;2022-08-03T05:33:54;94088.00;;;26.40
41593;BMP180;28026;48.562;14.440;2022-08-03T05:36:26;94091.00;;;26.40
41593;BMP180;28026;48.562;14.440;2022-08-03T05:38:57;94091.00;;;26.50
41593;BMP180;28026;48.562;14.440;2022-08-03T05:41:28;94092.00;;;26.60
41593;BMP180;28026;48.562;14.440;2022-08-03T05:43:59;94097.00;;;26.70
41593;BMP180;28026;48.562;14.440;2022-08-03T05:46:31;94099.00;;;26.90
41593;BMP180;28026;48.562;14.440;2022-08-03T05:49:02;94090.00;;;26.90
41593;BMP180;28026;48.562;14.440;2022-08-03T05:51:34;94094.00;;;27.00
41593;BMP180;28026;48.562;14.440;2022-08-03T05:54:05;94089.00;;;27.10
41593;BMP180;28026;48.562;14.440;2022-08-03T05:56:36;94089.00;;;27.20
41593;BMP180;28026;48.562;14.440;2022-08-03T05:59:07;94092.00;;;27.40
41593;BMP180;28026;48.562;14.440;2022-08-03T06:01:38;94088.00;;;27.40
41593;BMP180;28026;48.562;14.440;2022-08-03T06:04:09;94084.00;;;27.60
41593;BMP180;28026;48.562;14.440;2022-08-03T06:06:40;94087.00;;;27.70
41593;BMP180;28026;48.562;14.440;2022-08-03T06:09:11;94097.00;;;27.70
41593;BMP180;28026;48.562;14.440;2022-08-03T06:11:42;94094.00;;;27.80
41593;BMP180;28026;48.562;14.440;2022-08-03T06:14:14;94093.00;;;27.90
41593;BMP180;28026;48.562;14.440;2022-08-03T06:16:44;94087.00;;;28.00
41593;BMP180;28026;48.562;14.440;2022-08-03T06:19:15;94091.00;;;28.10
41593;BMP180;28026;48.562;14.440;2022-08-03T06:21:46;94098.00;;;28.30
41593;BMP180;28026;48.562;14.440;2022-08-03T06:24:17;94095.00;;;28.50
41593;BMP180;28026;48.562;14.440;2022-08-03T06:26:48;94101.00;;;28.50
41593;BMP180;28026;48.562;14.440;2022-08-03T06:29:19;94096.00;;;28.60
41593;BMP180;28026;48.562;14.440;2022-08-03T06:31:50;94101.00;;;28.80
41593;BMP180;28026;48.562;14.440;2022-08-03T06:34:21;94100.00;;;28.90
41593;BMP180;28026;48.562;14.440;2022-08-03T06:36:52;94100.00;;;29.10
41593;BMP180;28026;48.562;14.440;2022-08-03T06:39:24;94102.00;;;29.20
41593;BMP180;28026;48.562;14.440;2022-08-03T06:41:55;94100.00;;;29.30
41593;BMP180;28026;48.562;14.440;2022-08-03T06:44:25;94102.00;;;29.40
41593;BMP180;28026;48.562;14.440;2022-08-03T06:46:57;94093.00;;;29.50
41593;BMP180;28026;48.562;14.440;2022-08-03T06:49:28;94108.00;;;29.60
41593;BMP180;28026;48.562;14.440;2022-08-03T06:51:59;94101.00;;;29.60
41593;BMP180;28026;48.562;14.440;2022-08-03T06:54:30;94109.00;;;29.80
41593;BMP180;28026;48.562;14.440;2022-08-03T06:57:01;94113.00;;;29.90
41593;BMP180;28026;48.562;14.440;2022-08-03T06:59:32;94109.00;;;30.00
41593;BMP180;28026;48.562;14.440;2022-08-03T07:02:03;94109.00;;;30.00
41593;BMP180;28026;48.562;14.440;2022-08-03T07:04:35;94111.00;;;30.20
41593;BMP180;28026;48.562;14.440;2022-08-03T07:07:06;94114.00;;;30.30
41593;BMP180;28026;48.562;14.440;2022-08-03T07:09:37;94113.00;;;30.40
41593;BMP180;28026;48.562;14.440;2022-08-03T07:12:08;94107.00;;;30.40
41593;BMP180;28026;48.562;14.440;2022-08-03T07:14:39;94109.00;;;30.50
41593;BMP180;28026;48.562;14.440;2022-08-03T07:17:10;94114.00;;;30.60
41593;BMP180;28026;48.562;14.440;2022-08-03T07:19:40;94109.00;;;30.60
41593;BMP180;28026;48.562;14.440;2022-08-03T07:22:11;94116.00;;;30.80
41593;BMP180;28026;48.562;14.440;2022-08-03T07:24:42;94106.00;;;30.80
41593;BMP180;28026;48.562;14.440;2022-08-03T07:27:15;94111.00;;;30.80
41593;BMP180;28026;48.562;14.440;2022-08-03T07:29:46;94119.00;;;30.90
41593;BMP180;28026;48.562;14.440;2022-08-03T07:32:18;94119.00;;;31.00
41593;BMP180;28026;48.562;14.440;2022-08-03T07:34:49;94118.00;;;31.20
41593;BMP180;28026;48.562;14.440;2022-08-03T07:37:20;94121.00;;;31.20
41593;BMP180;28026;48.562;14.440;2022-08-03T07:39:51;94115.00;;;31.40
41593;BMP180;28026;48.562;14.440;2022-08-03T07:42:22;94124.00;;;31.60
41593;BMP180;28026;48.562;14.440;2022-08-03T07:44:54;94125.00;;;31.70
41593;BMP180;28026;48.562;14.440;2022-08-03T07:47:28;94114.00;;;31.80
41593;BMP180;28026;48.562;14.440;2022-08-03T07:50:00;94111.00;;;31.90
41593;BMP180;28026;48.562;14.440;2022-08-03T07:52:31;94120.00;;;31.90
41593;BMP180;28026;48.562;14.440;2022-08-03T07:55:20;94121.00;;;32.00
41593;BMP180;28026;48.562;14.440;2022-08-03T07:58:06;94123.00;;;32.10
41593;BMP180;28026;48.562;14.440;2022-08-03T08:00:52;94122.00;;;32.20
41593;BMP180;28026;48.562;14.440;2022-08-03T08:03:23;94125.00;;;32.30
41593;BMP180;28026;48.562;14.440;2022-08-03T08:05:56;94123.00;;;32.40
41593;BMP180;28026;48.562;14.440;2022-08-03T08:08:27;94122.00;;;32.60
41593;BMP180;28026;48.562;14.440;2022-08-03T08:10:58;94120.00;;;32.70
41593;BMP180;28026;48.562;14.440;2022-08-03T08:13:29;94121.00;;;32.80
41593;BMP180;28026;48.562;14.440;2022-08-03T08:16:00;94122.00;;;32.90
41593;BMP180;28026;48.562;14.440;2022-08-03T08:18:31;94120.00;;;33.10
41593;BMP180;28026;48.562;14.440;2022-08-03T08:21:02;94113.00;;;33.20
41593;BMP180;28026;48.562;14.440;2022-08-03T08:23:33;94113.00;;;33.40
41593;BMP180;28026;48.562;14.440;2022-08-03T08:26:04;94117.00;;;33.40
41593;BMP180;28026;48.562;14.440;2022-08-03T08:28:35;94117.00;;;33.30
41593;BMP180;28026;48.562;14.440;2022-08-03T08:31:06;94116.00;;;33.30
41593;BMP180;28026;48.562;14.440;2022-08-03T08:33:37;94113.00;;;33.40
41593;BMP180;28026;48.562;14.440;2022-08-03T08:36:08;94116.00;;;33.50
41593;BMP180;28026;48.562;14.440;2022-08-03T08:38:39;94113.00;;;33.70
41593;BMP180;28026;48.562;14.440;2022-08-03T08:41:13;94110.00;;;33.90
41593;BMP180;28026;48.562;14.440;2022-08-03T08:43:45;94114.00;;;34.00
41593;BMP180;28026;48.562;14.440;2022-08-03T08:46:18;94114.00;;;34.10
41593;BMP180;28026;48.562;14.440;2022-08-03T08:48:52;94123.00;;;34.10
41593;BMP180;28026;48.562;14.440;2022-08-03T08:51:30;94117.00;;;34.20
41593;BMP180;28026;48.562;14.440;2022-08-03T08:54:07;94122.00;;;34.30
41593;BMP180;28026;48.562;14.440;2022-08-03T08:56:39;94119.00;;;34.50
41593;BMP180;28026;48.562;14.440;2022-08-03T08:59:10;94116.00;;;34.70
41593;BMP180;28026;48.562;14.440;2022-08-03T09:01:43;94112.00;;;34.80
41593;BMP180;28026;48.562;14.440;2022-08-03T09:04:14;94112.00;;;34.80
41593;BMP180;28026;48.562;14.440;2022-08-03T09:06:45;94121.00;;;34.80
41593;BMP180;28026;48.562;14.440;2022-08-03T09:09:16;94111.00;;;35.00
41593;BMP180;28026;48.562;14.440;2022-08-03T09:11:48;94114.00;;;35.10
41593;BMP180;28026;48.562;14.440;2022-08-03T09:14:19;94112.00;;;35.00
41593;BMP180;28026;48.562;14.440;2022-08-03T09:16:59;94109.00;;;35.10
41593;BMP180;28026;48.562;14.440;2022-08-03T09:19:34;94117.00;;;35.20
41593;BMP180;28026;48.562;14.440;2022-08-03T09:22:16;94112.00;;;35.30
41593;BMP180;28026;48.562;14.440;2022-08-03T09:25:04;94109.00;;;35.30
41593;BMP180;28026;48.562;14.440;2022-08-03T09:27:45;94110.00;;;35.50
41593;BMP180;28026;48.562;14.440;2022-08-03T09:30:18;94106.00;;;35.70
41593;BMP180;28026;48.562;14.440;2022-08-03T09:32:49;94102.00;;;35.70
41593;BMP180;28026;48.562;14.440;2022-08-03T09:35:26;94112.00;;;35.80
41593;BMP180;28026;48.562;14.440;2022-08-03T09:38:13;94113.00;;;35.90
41593;BMP180;28026;48.562;14.440;2022-08-03T09:40:45;94112.00;;;36.00
41593;BMP180;28026;48.562;14.440;2022-08-03T09:43:16;94111.00;;;36.00
41593;BMP180;28026;48.562;14.440;2022-08-03T09:45:48;94114.00;;;36.10
41593;BMP180;28026;48.562;14.440;2022-08-03T09:50:58;94110.00;;;36.10
41593;BMP180;28026;48.562;14.440;2022-08-03T09:53:41;94108.00;;;36.10
41593;BMP180;28026;48.562;14.440;2022-08-03T09:56:13;94113.00;;;36.30
41593;BMP180;28026;48.562;14.440;2022-08-03T09:58:46;94101.00;;;36.60
41593;BMP180;28026;48.562;14.440;2022-08-03T10:01:17;94111.00;;;36.90
41593;BMP180;28026;48.562;14.440;2022-08-03T10:03:57;94109.00;;;36.80
41593;BMP180;28026;48.562;14.440;2022-08-03T10:06:29;94106.00;;;36.70
41593;BMP180;28026;48.562;14.440;2022-08-03T10:09:14;94105.00;;;36.60
41593;BMP180;28026;48.562;14.440;2022-08-03T10:11:46;94104.00;;;36.60
41593;BMP180;28026;48.562;14.440;2022-08-03T10:14:17;94105.00;;;36.60
41593;BMP180;28026;48.562;14.440;2022-08-03T10:16:49;94108.00;;;36.50
41593;BMP180;28026;48.562;14.440;2022-08-03T10:19:20;94101.00;;;36.60
41593;BMP180;28026;48.562;14.440;2022-08-03T10:21:57;94099.00;;;36.70
41593;BMP180;28026;48.562;14.440;2022-08-03T10:24:47;94108.00;;;36.90
41593;BMP180;28026;48.562;14.440;2022-08-03T10:27:24;94099.00;;;36.90
41593;BMP180;28026;48.562;14.440;2022-08-03T10:30:09;94097.00;;;36.90
41593;BMP180;28026;48.562;14.440;2022-08-03T10:33:03;94099.00;;;37.10
41593;BMP180;28026;48.562;14.440;2022-08-03T10:35:40;94090.00;;;37.20
41593;BMP180;28026;48.562;14.440;2022-08-03T10:38:20;94092.00;;;37.20
41593;BMP180;28026;48.562;14.440;2022-08-03T10:40:54;94095.00;;;37.20
41593;BMP180;28026;48.562;14.440;2022-08-03T10:43:52;94091.00;;;37.40
41593;BMP180;28026;48.562;14.440;2022-08-03T10:46:34;94095.00;;;37.60
41593;BMP180;28026;48.562;14.440;2022-08-03T10:49:16;94089.00;;;37.60
41593;BMP180;28026;48.562;14.440;2022-08-03T10:51:48;94098.00;;;37.60
41593;BMP180;28026;48.562;14.440;2022-08-03T10:54:42;94100.00;;;37.90
41593;BMP180;28026;48.562;14.440;2022-08-03T10:57:53;94100.00;;;37.90
41593;BMP180;28026;48.562;14.440;2022-08-03T11:00:26;94094.00;;;38.10
41593;BMP180;28026;48.562;14.440;2022-08-03T11:03:12;94088.00;;;38.20
41593;BMP180;28026;48.562;14.440;2022-08-03T11:05:48;94093.00;;;38.10
41593;BMP180;28026;48.562;14.440;2022-08-03T11:08:20;94089.00;;;38.10
41593;BMP180;28026;48.562;14.440;2022-08-03T11:14:15;94083.00;;;38.10
41593;BMP180;28026;48.562;14.440;2022-08-03T11:17:08;94084.00;;;38.20
41593;BMP180;28026;48.562;14.440;2022-08-03T11:19:50;94088.00;;;37.70
41593;BMP180;28026;48.562;14.440;2022-08-03T11:22:22;94084.00;;;37.50
41593;BMP180;28026;48.562;14.440;2022-08-03T11:27:34;94082.00;;;37.50
41593;BMP180;28026;48.562;14.440;2022-08-03T11:30:22;94091.00;;;37.50
41593;BMP180;28026;48.562;14.440;2022-08-03T11:32:59;94079.00;;;37.50
41593;BMP180;28026;48.562;14.440;2022-08-03T11:35:34;94075.00;;;37.40
41593;BMP180;28026;48.562;14.440;2022-08-03T11:38:07;94084.00;;;37.40
41593;BMP180;28026;48.562;14.440;2022-08-03T11:41:32;94077.00;;;37.10
41593;BMP180;28026;48.562;14.440;2022-08-03T11:44:03;94082.00;;;37.10
41593;BMP180;28026;48.562;14.440;2022-08-03T11:46:37;94083.00;;;37.10
41593;BMP180;28026;48.562;14.440;2022-08-03T11:49:08;94074.00;;;37.40
41593;BMP180;28026;48.562;14.440;2022-08-03T11:51:41;94072.00;;;37.50
41593;BMP180;28026;48.562;14.440;2022-08-03T11:54:12;94084.00;;;37.60
41593;BMP180;28026;48.562;14.440;2022-08-03T11:56:48;94078.00;;;37.60
41593;BMP180;28026;48.562;14.440;2022-08-03T11:59:35;94067.00;;;37.60
41593;BMP180;28026;48.562;14.440;2022-08-03T12:02:12;94078.00;;;37.70
41593;BMP180;28026;48.562;14.440;2022-08-03T12:04:58;94075.00;;;37.50
41593;BMP180;28026;48.562;14.440;2022-08-03T12:07:32;94080.00;;;37.30
41593;BMP180;28026;48.562;14.440;2022-08-03T12:10:13;94071.00;;;37.40
41593;BMP180;28026;48.562;14.440;2022-08-03T12:12:45;94065.00;;;37.40
41593;BMP180;28026;48.562;14.440;2022-08-03T12:15:31;94065.00;;;37.60
41593;BMP180;28026;48.562;14.440;2022-08-03T12:18:17;94073.00;;;37.40
41593;BMP180;28026;48.562;14.440;2022-08-03T12:20:52;94073.00;;;37.20
41593;BMP180;28026;48.562;14.440;2022-08-03T12:23:33;94066.00;;;37.30
41593;BMP180;28026;48.562;14.440;2022-08-03T12:26:09;94068.00;;;37.70
41593;BMP180;28026;48.562;14.440;2022-08-03T12:28:48;94070.00;;;37.80
41593;BMP180;28026;48.562;14.440;2022-08-03T12:31:19;94058.00;;;37.60
41593;BMP180;28026;48.562;14.440;2022-08-03T12:34:03;94070.00;;;37.50
41593;BMP180;28026;48.562;14.440;2022-08-03T12:36:36;94063.00;;;37.30
41593;BMP180;28026;48.562;14.440;2022-08-03T12:39:08;94062.00;;;37.40
41593;BMP180;28026;48.562;14.440;2022-08-03T12:41:41;94061.00;;;37.50
41593;BMP180;28026;48.562;14.440;2022-08-03T12:44:12;94065.00;;;37.60
41593;BMP180;28026;48.562;14.440;2022-08-03T12:46:43;94066.00;;;37.70
41593;BMP180;28026;48.562;14.440;2022-08-03T12:49:15;94046.00;;;38.10
41593;BMP180;28026;48.562;14.440;2022-08-03T12:54:28;94057.00;;;38.30
41593;BMP180;28026;48.562;14.440;2022-08-03T12:57:09;94052.00;;;38.20
41593;BMP180;28026;48.562;14.440;2022-08-03T12:59:44;94051.00;;;38.10
41593;BMP180;28026;48.562;14.440;2022-08-03T13:02:21;94056.00;;;38.10
41593;BMP180;28026;48.562;14.440;2022-08-03T13:04:55;94051.00;;;38.30
41593;BMP180;28026;48.562;14.440;2022-08-03T13:07:26;94053.00;;;38.50
41593;BMP180;28026;48.562;14.440;2022-08-03T13:09:57;94048.00;;;38.60
41593;BMP180;28026;48.562;14.440;2022-08-03T13:12:28;94048.00;;;38.60
41593;BMP180;28026;48.562;14.440;2022-08-03T13:15:00;94040.00;;;38.50
41593;BMP180;28026;48.562;14.440;2022-08-03T13:17:31;94043.00;;;38.60
41593;BMP180;28026;48.562;14.440;2022-08-03T13:20:03;94038.00;;;38.50
41593;BMP180;28026;48.562;14.440;2022-08-03T13:22:34;94042.00;;;38.40
41593;BMP180;28026;48.562;14.440;2022-08-03T13:25:06;94047.00;;;38.40
41593;BMP180;28026;48.562;14.440;2022-08-03T13:27:38;94042.00;;;38.60
41593;BMP180;28026;48.562;14.440;2022-08-03T13:30:10;94043.00;;;38.80
41593;BMP180;28026;48.562;14.440;2022-08-03T13:32:41;94042.00;;;39.00
41593;BMP180;28026;48.562;14.440;2022-08-03T13:35:12;94043.00;;;38.90
41593;BMP180;28026;48.562;14.440;2022-08-03T13:37:44;94043.00;;;39.00
41593;BMP180;28026;48.562;14.440;2022-08-03T13:40:15;94041.00;;;39.10
41593;BMP180;28026;48.562;14.440;2022-08-03T13:42:46;94040.00;;;39.10
41593;BMP180;28026;48.562;14.440;2022-08-03T13:45:17;94042.00;;;39.10
41593;BMP180;28026;48.562;14.440;2022-08-03T13:47:48;94036.00;;;39.30
41593;BMP180;28026;48.562;14.440;2022-08-03T13:50:19;94026.00;;;39.50
41593;BMP180;28026;48.562;14.440;2022-08-03T13:52:50;94022.00;;;39.50
41593;BMP180;28026;48.562;14.440;2022-08-03T13:55:21;94030.00;;;39.50
41593;BMP180;28026;48.562;14.440;2022-08-03T13:57:52;94014.00;;;39.60
41593;BMP180;28026;48.562;14.440;2022-08-03T14:00:23;94024.00;;;39.70
41593;BMP180;28026;48.562;14.440;2022-08-03T14:02:58;94013.00;;;39.70
41593;BMP180;28026;48.562;14.440;2022-08-03T14:05:30;94016.00;;;39.60
41593;BMP180;28026;48.562;14.440;2022-08-03T14:08:02;94019.00;;;39.70
41593;BMP180;28026;48.562;14.440;2022-08-03T14:10:40;94017.00;;;39.90
41593;BMP180;28026;48.562;14.440;2022-08-03T14:13:14;94017.00;;;39.80
41593;BMP180;28026;48.562;14.440;2022-08-03T14:15:46;94012.00;;;39.60
41593;BMP180;28026;48.562;14.440;2022-08-03T14:18:21;94012.00;;;39.50
41593;BMP180;28026;48.562;14.440;2022-08-03T14:20:52;94017.00;;;39.20
41593;BMP180;28026;48.562;14.440;2022-08-03T14:23:23;94022.00;;;39.10
41593;BMP180;28026;48.562;14.440;2022-08-03T14:25:55;94014.00;;;39.10
41593;BMP180;28026;48.562;14.440;2022-08-03T14:28:26;94011.00;;;39.10
41593;BMP180;28026;48.562;14.440;2022-08-03T14:30:59;94014.00;;;39.30
41593;BMP180;28026;48.562;14.440;2022-08-03T14:33:30;94011.00;;;39.40
41593;BMP180;28026;48.562;14.440;2022-08-03T14:36:02;94012.00;;;39.30
41593;BMP180;28026;48.562;14.440;2022-08-03T14:38:33;94008.00;;;39.20
41593;BMP180;28026;48.562;14.440;2022-08-03T14:41:04;94011.00;;;38.90
41593;BMP180;28026;48.562;14.440;2022-08-03T14:43:35;94004.00;;;38.90
41593;BMP180;28026;48.562;14.440;2022-08-03T14:46:06;94009.00;;;39.00
41593;BMP180;28026;48.562;14.440;2022-08-03T14:48:37;94011.00;;;39.10
41593;BMP180;28026;48.562;14.440;2022-08-03T14:51:08;94009.00;;;38.90
41593;BMP180;28026;48.562;14.440;2022-08-03T14:53:39;94006.00;;;38.90
41593;BMP180;28026;48.562;14.440;2022-08-03T14:56:11;93998.00;;;38.90
41593;BMP180;28026;48.562;14.440;2022-08-03T14:58:42;93999.00;;;38.80